sensor_id;sensor_type;location;lat;lon;timestamp;P1;durP1;ratioP1;P2;durP2;ratioP2
15317;SDS011;7759;52.528;13.346;2024-03-25T00:01:17;1.10;;;0.90;;
15317;SDS011;7759;52.528;13.346;2024-03-25T00:03:47;1.77;;;1.20;;
15317;SDS011;7759;52.528;13.346;2024-03-25T00:06:13;1.40;;;1.10;;
15317;SDS011;7759;52.528;13.346;2024-03-25T00:08:39;1.00;;;0.90;;
15317;SDS011;7759;52.528;13.346;2024-03-25T00:11:05;2.10;;;1.50;;
15317;SDS011;7759;52.528;13.346;2024-03-25T00:13:32;1.63;;;1.20;;
15317;SDS011;7759;52.528;13.346;2024-03-25T00:15:58;2.03;;;1.40;;
15317;SDS011;7759;52.528;13.346;2024-03-25T00:18:24;1.33;;;1.17;;
15317;SDS011;7759;52.528;13.346;2024-03-25T00:20:50;2.70;;;1.30;;
15317;SDS011;7759;52.528;13.346;2024-03-25T00:23:16;1.90;;;1.23;;
15317;SDS011;7759;52.528;13.346;2024-03-25T00:25:42;2.63;;;1.73;;
15317;SDS011;7759;52.528;13.346;2024-03-25T00:28:08;2.00;;;1.27;;
15317;SDS011;7759;52.528;13.346;2024-03-25T00:30:34;1.47;;;1.20;;
15317;SDS011;7759;52.528;13.346;2024-03-25T00:33:00;3.33;;;1.60;;
15317;SDS011;7759;52.528;13.346;2024-03-25T00:35:26;1.83;;;1.20;;
15317;SDS011;7759;52.528;13.346;2024-03-25T00:37:52;2.43;;;0.90;;
15317;SDS011;7759;52.528;13.346;2024-03-25T00:40:18;1.83;;;1.67;;
15317;SDS011;7759;52.528;13.346;2024-03-25T00:42:45;3.63;;;1.50;;
15317;SDS011;7759;52.528;13.346;2024-03-25T00:45:11;1.57;;;1.40;;
15317;SDS011;7759;52.528;13.346;2024-03-25T00:47:37;2.40;;;1.13;;
15317;SDS011;7759;52.528;13.346;2024-03-25T00:50:03;1.63;;;1.30;;
15317;SDS011;7759;52.528;13.346;2024-03-25T00:52:29;2.80;;;1.97;;
15317;SDS011;7759;52.528;13.346;2024-03-25T00:54:55;2.50;;;1.47;;
15317;SDS011;7759;52.528;13.346;2024-03-25T00:57:21;2.10;;;1.87;;
15317;SDS011;7759;52.528;13.346;2024-03-25T00:59:47;1.70;;;1.37;;
15317;SDS011;7759;52.528;13.346;2024-03-25T01:02:14;1.87;;;1.13;;
15317;SDS011;7759;52.528;13.346;2024-03-25T01:04:40;1.30;;;1.20;;
15317;SDS011;7759;52.528;13.346;2024-03-25T01:07:06;1.80;;;1.70;;
15317;SDS011;7759;52.528;13.346;2024-03-25T01:09:32;1.97;;;1.60;;
15317;SDS011;7759;52.528;13.346;2024-03-25T01:11:58;2.23;;;1.70;;
15317;SDS011;7759;52.528;13.346;2024-03-25T01:14:23;2.80;;;2.07;;
15317;SDS011;7759;52.528;13.346;2024-03-25T01:16:49;1.73;;;1.40;;
15317;SDS011;7759;52.528;13.346;2024-03-25T01:19:15;2.27;;;1.60;;
15317;SDS011;7759;52.528;13.346;2024-03-25T01:21:41;2.90;;;2.20;;
15317;SDS011;7759;52.528;13.346;2024-03-25T01:24:07;3.07;;;2.03;;
15317;SDS011;7759;52.528;13.346;2024-03-25T01:26:33;3.30;;;1.93;;
15317;SDS011;7759;52.528;13.346;2024-03-25T01:28:59;3.40;;;1.97;;
15317;SDS011;7759;52.528;13.346;2024-03-25T01:31:25;2.30;;;1.97;;
15317;SDS011;7759;52.528;13.346;2024-03-25T01:33:51;2.43;;;2.23;;
15317;SDS011;7759;52.528;13.346;2024-03-25T01:36:17;3.00;;;1.87;;
15317;SDS011;7759;52.528;13.346;2024-03-25T01:38:44;2.27;;;2.03;;
15317;SDS011;7759;52.528;13.346;2024-03-25T01:41:10;3.17;;;2.00;;
15317;SDS011;7759;52.528;13.346;2024-03-25T01:43:36;2.10;;;1.50;;
15317;SDS011;7759;52.528;13.346;2024-03-25T01:46:02;2.57;;;2.07;;
15317;SDS011;7759;52.528;13.346;2024-03-25T01:48:29;3.67;;;2.20;;
15317;SDS011;7759;52.528;13.346;2024-03-25T01:50:55;2.53;;;1.57;;
15317;SDS011;7759;52.528;13.346;2024-03-25T01:53:22;4.10;;;1.67;;
15317;SDS011;7759;52.528;13.346;2024-03-25T01:55:48;3.50;;;1.90;;
15317;SDS011;7759;52.528;13.346;2024-03-25T01:58:14;2.33;;;1.60;;
15317;SDS011;7759;52.528;13.346;2024-03-25T02:00:41;1.23;;;0.93;;
15317;SDS011;7759;52.528;13.346;2024-03-25T02:03:08;1.90;;;1.30;;
15317;SDS011;7759;52.528;13.346;2024-03-25T02:05:34;1.00;;;0.90;;
15317;SDS011;7759;52.528;13.346;2024-03-25T02:08:01;0.67;;;0.67;;
15317;SDS011;7759;52.528;13.346;2024-03-25T02:10:27;0.63;;;0.50;;
15317;SDS011;7759;52.528;13.346;2024-03-25T02:12:53;1.03;;;0.70;;
15317;SDS011;7759;52.528;13.346;2024-03-25T02:15:19;1.60;;;0.77;;
15317;SDS011;7759;52.528;13.346;2024-03-25T02:17:46;0.90;;;0.70;;
15317;SDS011;7759;52.528;13.346;2024-03-25T02:20:11;1.27;;;0.90;;
15317;SDS011;7759;52.528;13.346;2024-03-25T02:22:40;1.43;;;0.80;;
15317;SDS011;7759;52.528;13.346;2024-03-25T02:25:07;1.70;;;1.03;;
15317;SDS011;7759;52.528;13.346;2024-03-25T02:27:33;1.13;;;0.70;;
15317;SDS011;7759;52.528;13.346;2024-03-25T02:30:06;1.43;;;1.10;;
15317;SDS011;7759;52.528;13.346;2024-03-25T02:32:33;1.90;;;1.00;;
15317;SDS011;7759;52.528;13.346;2024-03-25T02:34:59;1.70;;;1.20;;
15317;SDS011;7759;52.528;13.346;2024-03-25T02:37:26;2.33;;;0.93;;
15317;SDS011;7759;52.528;13.346;2024-03-25T02:39:57;1.77;;;0.97;;
15317;SDS011;7759;52.528;13.346;2024-03-25T02:42:24;2.00;;;1.50;;
15317;SDS011;7759;52.528;13.346;2024-03-25T02:44:51;2.03;;;1.30;;
15317;SDS011;7759;52.528;13.346;2024-03-25T02:47:17;3.13;;;1.30;;
15317;SDS011;7759;52.528;13.346;2024-03-25T02:49:44;1.23;;;1.00;;
15317;SDS011;7759;52.528;13.346;2024-03-25T02:52:10;1.10;;;0.80;;
15317;SDS011;7759;52.528;13.346;2024-03-25T02:54:36;1.27;;;0.87;;
15317;SDS011;7759;52.528;13.346;2024-03-25T02:57:02;1.87;;;0.80;;
15317;SDS011;7759;52.528;13.346;2024-03-25T02:59:28;2.13;;;1.10;;
15317;SDS011;7759;52.528;13.346;2024-03-25T03:01:54;1.10;;;1.00;;
15317;SDS011;7759;52.528;13.346;2024-03-25T03:04:20;1.10;;;0.90;;
15317;SDS011;7759;52.528;13.346;2024-03-25T03:06:46;1.30;;;0.93;;
15317;SDS011;7759;52.528;13.346;2024-03-25T03:09:12;1.70;;;1.07;;
15317;SDS011;7759;52.528;13.346;2024-03-25T03:11:37;1.67;;;1.40;;
15317;SDS011;7759;52.528;13.346;2024-03-25T03:14:03;2.70;;;1.37;;
15317;SDS011;7759;52.528;13.346;2024-03-25T03:16:29;3.23;;;1.50;;
15317;SDS011;7759;52.528;13.346;2024-03-25T03:18:55;2.43;;;1.40;;
15317;SDS011;7759;52.528;13.346;2024-03-25T03:21:21;1.30;;;1.07;;
15317;SDS011;7759;52.528;13.346;2024-03-25T03:23:47;2.43;;;1.40;;
15317;SDS011;7759;52.528;13.346;2024-03-25T03:26:13;1.60;;;1.10;;
15317;SDS011;7759;52.528;13.346;2024-03-25T03:28:39;2.37;;;1.43;;
15317;SDS011;7759;52.528;13.346;2024-03-25T03:31:05;2.50;;;1.17;;
15317;SDS011;7759;52.528;13.346;2024-03-25T03:33:31;1.63;;;1.07;;
15317;SDS011;7759;52.528;13.346;2024-03-25T03:35:57;1.43;;;0.97;;
15317;SDS011;7759;52.528;13.346;2024-03-25T03:38:23;1.53;;;1.10;;
15317;SDS011;7759;52.528;13.346;2024-03-25T03:40:59;1.90;;;1.03;;
15317;SDS011;7759;52.528;13.346;2024-03-25T03:43:25;1.27;;;1.07;;
15317;SDS011;7759;52.528;13.346;2024-03-25T03:45:51;1.43;;;1.20;;
15317;SDS011;7759;52.528;13.346;2024-03-25T03:48:17;1.80;;;1.23;;
15317;SDS011;7759;52.528;13.346;2024-03-25T03:50:43;1.83;;;1.40;;
15317;SDS011;7759;52.528;13.346;2024-03-25T03:53:09;1.67;;;1.20;;
15317;SDS011;7759;52.528;13.346;2024-03-25T03:55:35;1.77;;;1.27;;
15317;SDS011;7759;52.528;13.346;2024-03-25T03:58:01;3.37;;;1.13;;
15317;SDS011;7759;52.528;13.346;2024-03-25T04:00:27;1.33;;;0.93;;
15317;SDS011;7759;52.528;13.346;2024-03-25T04:02:53;1.63;;;1.40;;
15317;SDS011;7759;52.528;13.346;2024-03-25T04:05:19;1.40;;;1.07;;
15317;SDS011;7759;52.528;13.346;2024-03-25T04:07:45;1.10;;;0.90;;
15317;SDS011;7759;52.528;13.346;2024-03-25T04:10:11;2.03;;;1.20;;
15317;SDS011;7759;52.528;13.346;2024-03-25T04:12:37;1.47;;;1.13;;
15317;SDS011;7759;52.528;13.346;2024-03-25T04:15:04;1.73;;;0.90;;
15317;SDS011;7759;52.528;13.346;2024-03-25T04:17:30;0.83;;;0.73;;
15317;SDS011;7759;52.528;13.346;2024-03-25T04:19:58;2.10;;;1.17;;
15317;SDS011;7759;52.528;13.346;2024-03-25T04:22:25;1.00;;;0.90;;
15317;SDS011;7759;52.528;13.346;2024-03-25T04:24:51;1.67;;;0.87;;
15317;SDS011;7759;52.528;13.346;2024-03-25T04:27:17;2.57;;;1.10;;
15317;SDS011;7759;52.528;13.346;2024-03-25T04:29:45;2.00;;;1.30;;
15317;SDS011;7759;52.528;13.346;2024-03-25T04:32:11;1.20;;;1.10;;
15317;SDS011;7759;52.528;13.346;2024-03-25T04:34:37;1.73;;;1.57;;
15317;SDS011;7759;52.528;13.346;2024-03-25T04:37:03;1.77;;;1.30;;
15317;SDS011;7759;52.528;13.346;2024-03-25T04:39:29;2.03;;;1.20;;
15317;SDS011;7759;52.528;13.346;2024-03-25T04:41:55;1.57;;;1.10;;
15317;SDS011;7759;52.528;13.346;2024-03-25T04:44:21;1.20;;;1.10;;
15317;SDS011;7759;52.528;13.346;2024-03-25T04:46:47;1.63;;;1.23;;
15317;SDS011;7759;52.528;13.346;2024-03-25T04:49:13;2.13;;;1.40;;
15317;SDS011;7759;52.528;13.346;2024-03-25T04:51:39;2.23;;;1.40;;
15317;SDS011;7759;52.528;13.346;2024-03-25T04:54:06;1.30;;;1.20;;
15317;SDS011;7759;52.528;13.346;2024-03-25T04:56:32;2.03;;;1.47;;
15317;SDS011;7759;52.528;13.346;2024-03-25T04:58:58;1.73;;;1.27;;
15317;SDS011;7759;52.528;13.346;2024-03-25T05:01:26;1.90;;;1.67;;
15317;SDS011;7759;52.528;13.346;2024-03-25T05:03:52;2.07;;;1.60;;
15317;SDS011;7759;52.528;13.346;2024-03-25T05:06:18;3.90;;;1.23;;
15317;SDS011;7759;52.528;13.346;2024-03-25T05:08:44;2.23;;;1.70;;
15317;SDS011;7759;52.528;13.346;2024-03-25T05:11:10;1.77;;;1.27;;
15317;SDS011;7759;52.528;13.346;2024-03-25T05:13:36;2.30;;;1.40;;
15317;SDS011;7759;52.528;13.346;2024-03-25T05:16:02;1.47;;;1.20;;
15317;SDS011;7759;52.528;13.346;2024-03-25T05:18:28;1.13;;;0.90;;
15317;SDS011;7759;52.528;13.346;2024-03-25T05:20:54;1.90;;;1.23;;
15317;SDS011;7759;52.528;13.346;2024-03-25T05:23:20;2.43;;;1.40;;
15317;SDS011;7759;52.528;13.346;2024-03-25T05:25:46;2.23;;;1.03;;
15317;SDS011;7759;52.528;13.346;2024-03-25T05:28:12;1.77;;;1.40;;
15317;SDS011;7759;52.528;13.346;2024-03-25T05:30:38;1.40;;;0.90;;
15317;SDS011;7759;52.528;13.346;2024-03-25T05:33:04;2.27;;;1.30;;
15317;SDS011;7759;52.528;13.346;2024-03-25T05:35:30;1.50;;;1.40;;
15317;SDS011;7759;52.528;13.346;2024-03-25T05:37:59;2.50;;;1.13;;
15317;SDS011;7759;52.528;13.346;2024-03-25T05:40:25;2.77;;;1.40;;
15317;SDS011;7759;52.528;13.346;2024-03-25T05:42:50;2.57;;;1.60;;
15317;SDS011;7759;52.528;13.346;2024-03-25T05:45:16;1.83;;;1.30;;
15317;SDS011;7759;52.528;13.346;2024-03-25T05:47:42;3.67;;;2.00;;
15317;SDS011;7759;52.528;13.346;2024-03-25T05:50:08;2.27;;;1.50;;
15317;SDS011;7759;52.528;13.346;2024-03-25T05:52:34;1.20;;;1.10;;
15317;SDS011;7759;52.528;13.346;2024-03-25T05:55:00;4.23;;;1.83;;
15317;SDS011;7759;52.528;13.346;2024-03-25T05:57:26;3.57;;;1.80;;
15317;SDS011;7759;52.528;13.346;2024-03-25T05:59:52;2.70;;;1.80;;
15317;SDS011;7759;52.528;13.346;2024-03-25T06:02:18;5.47;;;1.60;;
15317;SDS011;7759;52.528;13.346;2024-03-25T06:04:44;3.67;;;1.70;;
15317;SDS011;7759;52.528;13.346;2024-03-25T06:07:09;2.23;;;1.40;;
15317;SDS011;7759;52.528;13.346;2024-03-25T06:09:35;2.47;;;1.50;;
15317;SDS011;7759;52.528;13.346;2024-03-25T06:12:01;5.37;;;2.00;;
15317;SDS011;7759;52.528;13.346;2024-03-25T06:14:27;2.47;;;1.10;;
15317;SDS011;7759;52.528;13.346;2024-03-25T06:16:53;3.63;;;1.83;;
15317;SDS011;7759;52.528;13.346;2024-03-25T06:19:19;4.67;;;1.83;;
15317;SDS011;7759;52.528;13.346;2024-03-25T06:21:45;1.90;;;1.33;;
15317;SDS011;7759;52.528;13.346;2024-03-25T06:24:11;3.80;;;1.33;;
15317;SDS011;7759;52.528;13.346;2024-03-25T06:26:37;1.90;;;1.40;;
15317;SDS011;7759;52.528;13.346;2024-03-25T06:29:03;3.63;;;1.70;;
15317;SDS011;7759;52.528;13.346;2024-03-25T06:31:29;2.77;;;1.73;;
15317;SDS011;7759;52.528;13.346;2024-03-25T06:34:13;4.37;;;1.80;;
15317;SDS011;7759;52.528;13.346;2024-03-25T06:36:40;4.93;;;2.40;;
15317;SDS011;7759;52.528;13.346;2024-03-25T06:39:06;4.03;;;2.33;;
15317;SDS011;7759;52.528;13.346;2024-03-25T06:41:32;2.83;;;1.57;;
15317;SDS011;7759;52.528;13.346;2024-03-25T06:43:58;3.13;;;1.53;;
15317;SDS011;7759;52.528;13.346;2024-03-25T06:46:24;4.83;;;1.50;;
15317;SDS011;7759;52.528;13.346;2024-03-25T06:48:50;6.07;;;2.00;;
15317;SDS011;7759;52.528;13.346;2024-03-25T06:51:17;4.83;;;1.50;;
15317;SDS011;7759;52.528;13.346;2024-03-25T06:53:43;2.73;;;1.87;;
15317;SDS011;7759;52.528;13.346;2024-03-25T06:56:09;4.73;;;1.87;;
15317;SDS011;7759;52.528;13.346;2024-03-25T06:58:35;6.60;;;1.60;;
15317;SDS011;7759;52.528;13.346;2024-03-25T07:01:08;1.93;;;1.07;;
15317;SDS011;7759;52.528;13.346;2024-03-25T07:03:34;2.07;;;1.13;;
15317;SDS011;7759;52.528;13.346;2024-03-25T07:06:01;4.77;;;1.70;;
15317;SDS011;7759;52.528;13.346;2024-03-25T07:08:27;4.57;;;1.63;;
15317;SDS011;7759;52.528;13.346;2024-03-25T07:10:55;2.87;;;1.80;;
15317;SDS011;7759;52.528;13.346;2024-03-25T07:13:21;4.20;;;1.70;;
15317;SDS011;7759;52.528;13.346;2024-03-25T07:15:47;2.53;;;1.40;;
15317;SDS011;7759;52.528;13.346;2024-03-25T07:18:12;4.53;;;1.87;;
15317;SDS011;7759;52.528;13.346;2024-03-25T07:20:39;1.30;;;1.07;;
15317;SDS011;7759;52.528;13.346;2024-03-25T07:23:05;2.90;;;1.50;;
15317;SDS011;7759;52.528;13.346;2024-03-25T07:25:31;4.80;;;1.77;;
15317;SDS011;7759;52.528;13.346;2024-03-25T07:27:57;2.83;;;1.33;;
15317;SDS011;7759;52.528;13.346;2024-03-25T07:30:23;1.50;;;1.17;;
15317;SDS011;7759;52.528;13.346;2024-03-25T07:32:53;2.90;;;1.27;;
15317;SDS011;7759;52.528;13.346;2024-03-25T07:35:18;1.30;;;1.13;;
15317;SDS011;7759;52.528;13.346;2024-03-25T07:37:44;1.73;;;1.23;;
15317;SDS011;7759;52.528;13.346;2024-03-25T07:40:10;2.10;;;1.30;;
15317;SDS011;7759;52.528;13.346;2024-03-25T07:42:36;2.87;;;1.53;;
15317;SDS011;7759;52.528;13.346;2024-03-25T07:45:02;3.07;;;1.40;;
15317;SDS011;7759;52.528;13.346;2024-03-25T07:47:30;2.80;;;1.67;;
15317;SDS011;7759;52.528;13.346;2024-03-25T07:49:55;2.93;;;1.23;;
15317;SDS011;7759;52.528;13.346;2024-03-25T07:52:21;1.37;;;1.07;;
15317;SDS011;7759;52.528;13.346;2024-03-25T07:54:47;2.40;;;1.37;;
15317;SDS011;7759;52.528;13.346;2024-03-25T07:57:13;4.13;;;1.43;;
15317;SDS011;7759;52.528;13.346;2024-03-25T07:59:39;2.40;;;1.30;;
15317;SDS011;7759;52.528;13.346;2024-03-25T08:02:05;3.30;;;1.83;;
15317;SDS011;7759;52.528;13.346;2024-03-25T08:04:31;2.23;;;1.47;;
15317;SDS011;7759;52.528;13.346;2024-03-25T08:06:57;2.80;;;1.40;;
15317;SDS011;7759;52.528;13.346;2024-03-25T08:09:22;3.23;;;1.30;;
15317;SDS011;7759;52.528;13.346;2024-03-25T08:11:48;1.47;;;1.30;;
15317;SDS011;7759;52.528;13.346;2024-03-25T08:14:14;3.53;;;1.40;;
15317;SDS011;7759;52.528;13.346;2024-03-25T08:16:40;3.83;;;1.30;;
15317;SDS011;7759;52.528;13.346;2024-03-25T08:19:06;2.10;;;1.53;;
15317;SDS011;7759;52.528;13.346;2024-03-25T08:21:32;1.57;;;1.33;;
15317;SDS011;7759;52.528;13.346;2024-03-25T08:23:58;4.00;;;1.50;;
15317;SDS011;7759;52.528;13.346;2024-03-25T08:26:24;2.63;;;1.60;;
15317;SDS011;7759;52.528;13.346;2024-03-25T08:28:50;9.43;;;2.07;;
15317;SDS011;7759;52.528;13.346;2024-03-25T08:31:15;2.33;;;1.37;;
15317;SDS011;7759;52.528;13.346;2024-03-25T08:33:41;2.83;;;0.97;;
15317;SDS011;7759;52.528;13.346;2024-03-25T08:36:07;3.07;;;1.23;;
15317;SDS011;7759;52.528;13.346;2024-03-25T08:38:33;1.27;;;1.10;;
15317;SDS011;7759;52.528;13.346;2024-03-25T08:40:59;2.10;;;0.90;;
15317;SDS011;7759;52.528;13.346;2024-03-25T08:43:25;3.17;;;1.63;;
15317;SDS011;7759;52.528;13.346;2024-03-25T08:45:51;2.57;;;1.50;;
15317;SDS011;7759;52.528;13.346;2024-03-25T08:48:17;1.30;;;1.10;;
15317;SDS011;7759;52.528;13.346;2024-03-25T08:50:43;2.33;;;1.43;;
15317;SDS011;7759;52.528;13.346;2024-03-25T08:53:09;3.47;;;1.33;;
15317;SDS011;7759;52.528;13.346;2024-03-25T08:55:35;2.07;;;1.20;;
15317;SDS011;7759;52.528;13.346;2024-03-25T08:58:01;1.17;;;0.90;;
15317;SDS011;7759;52.528;13.346;2024-03-25T09:00:28;2.67;;;1.57;;
15317;SDS011;7759;52.528;13.346;2024-03-25T09:02:54;1.80;;;1.10;;
15317;SDS011;7759;52.528;13.346;2024-03-25T09:05:20;1.60;;;1.20;;
15317;SDS011;7759;52.528;13.346;2024-03-25T09:07:48;2.93;;;1.10;;
15317;SDS011;7759;52.528;13.346;2024-03-25T09:10:17;1.93;;;1.30;;
15317;SDS011;7759;52.528;13.346;2024-03-25T09:13:02;4.23;;;1.50;;
15317;SDS011;7759;52.528;13.346;2024-03-25T09:15:28;2.40;;;1.13;;
15317;SDS011;7759;52.528;13.346;2024-03-25T09:17:54;1.60;;;1.30;;
15317;SDS011;7759;52.528;13.346;2024-03-25T09:20:20;1.03;;;0.87;;
15317;SDS011;7759;52.528;13.346;2024-03-25T09:22:46;2.00;;;0.90;;
15317;SDS011;7759;52.528;13.346;2024-03-25T09:25:15;1.77;;;1.00;;
15317;SDS011;7759;52.528;13.346;2024-03-25T09:27:50;1.87;;;1.23;;
15317;SDS011;7759;52.528;13.346;2024-03-25T09:30:17;2.87;;;1.37;;
15317;SDS011;7759;52.528;13.346;2024-03-25T09:32:45;1.37;;;1.00;;
15317;SDS011;7759;52.528;13.346;2024-03-25T09:35:12;1.27;;;1.03;;
15317;SDS011;7759;52.528;13.346;2024-03-25T09:37:38;4.63;;;1.13;;
15317;SDS011;7759;52.528;13.346;2024-03-25T09:40:04;4.00;;;1.57;;
15317;SDS011;7759;52.528;13.346;2024-03-25T09:42:33;1.43;;;1.10;;
15317;SDS011;7759;52.528;13.346;2024-03-25T09:44:59;2.13;;;1.13;;
15317;SDS011;7759;52.528;13.346;2024-03-25T09:47:25;3.13;;;1.40;;
15317;SDS011;7759;52.528;13.346;2024-03-25T09:49:53;1.23;;;0.90;;
15317;SDS011;7759;52.528;13.346;2024-03-25T09:52:20;4.77;;;2.03;;
15317;SDS011;7759;52.528;13.346;2024-03-25T09:54:45;2.20;;;1.47;;
15317;SDS011;7759;52.528;13.346;2024-03-25T09:57:11;3.50;;;1.73;;
15317;SDS011;7759;52.528;13.346;2024-03-25T09:59:39;3.40;;;1.50;;
15317;SDS011;7759;52.528;13.346;2024-03-25T10:02:05;2.53;;;1.23;;
15317;SDS011;7759;52.528;13.346;2024-03-25T10:04:31;2.70;;;1.70;;
15317;SDS011;7759;52.528;13.346;2024-03-25T10:06:57;2.57;;;1.30;;
15317;SDS011;7759;52.528;13.346;2024-03-25T10:09:23;3.03;;;1.70;;
15317;SDS011;7759;52.528;13.346;2024-03-25T10:11:50;1.87;;;0.97;;
15317;SDS011;7759;52.528;13.346;2024-03-25T10:14:16;3.83;;;1.70;;
15317;SDS011;7759;52.528;13.346;2024-03-25T10:16:43;3.60;;;1.30;;
15317;SDS011;7759;52.528;13.346;2024-03-25T10:19:09;1.47;;;1.07;;
15317;SDS011;7759;52.528;13.346;2024-03-25T10:21:35;2.00;;;1.10;;
15317;SDS011;7759;52.528;13.346;2024-03-25T10:24:01;2.30;;;1.27;;
15317;SDS011;7759;52.528;13.346;2024-03-25T10:26:27;2.67;;;0.97;;
15317;SDS011;7759;52.528;13.346;2024-03-25T10:29:03;1.80;;;1.17;;
15317;SDS011;7759;52.528;13.346;2024-03-25T10:31:32;2.27;;;1.60;;
15317;SDS011;7759;52.528;13.346;2024-03-25T10:33:58;2.63;;;1.27;;
15317;SDS011;7759;52.528;13.346;2024-03-25T10:36:25;1.70;;;1.20;;
15317;SDS011;7759;52.528;13.346;2024-03-25T10:38:57;2.03;;;1.00;;
15317;SDS011;7759;52.528;13.346;2024-03-25T10:41:25;1.50;;;1.10;;
15317;SDS011;7759;52.528;13.346;2024-03-25T10:43:53;2.43;;;1.00;;
15317;SDS011;7759;52.528;13.346;2024-03-25T10:46:21;1.00;;;0.83;;
15317;SDS011;7759;52.528;13.346;2024-03-25T10:48:52;2.67;;;1.27;;
15317;SDS011;7759;52.528;13.346;2024-03-25T10:51:20;4.77;;;1.40;;
15317;SDS011;7759;52.528;13.346;2024-03-25T10:53:47;1.50;;;1.10;;
15317;SDS011;7759;52.528;13.346;2024-03-25T10:56:15;2.40;;;1.43;;
15317;SDS011;7759;52.528;13.346;2024-03-25T10:58:41;4.93;;;2.07;;
15317;SDS011;7759;52.528;13.346;2024-03-25T11:01:08;1.83;;;1.40;;
15317;SDS011;7759;52.528;13.346;2024-03-25T11:03:34;2.40;;;1.00;;
15317;SDS011;7759;52.528;13.346;2024-03-25T11:06:01;1.30;;;1.20;;
15317;SDS011;7759;52.528;13.346;2024-03-25T11:08:30;1.57;;;1.10;;
15317;SDS011;7759;52.528;13.346;2024-03-25T11:10:57;2.10;;;0.83;;
15317;SDS011;7759;52.528;13.346;2024-03-25T11:13:23;0.80;;;0.80;;
15317;SDS011;7759;52.528;13.346;2024-03-25T11:15:49;0.90;;;0.80;;
15317;SDS011;7759;52.528;13.346;2024-03-25T11:18:16;2.43;;;1.27;;
15317;SDS011;7759;52.528;13.346;2024-03-25T11:20:45;1.07;;;0.97;;
15317;SDS011;7759;52.528;13.346;2024-03-25T11:23:12;1.30;;;1.03;;
15317;SDS011;7759;52.528;13.346;2024-03-25T11:25:38;3.83;;;1.20;;
15317;SDS011;7759;52.528;13.346;2024-03-25T11:28:05;1.13;;;0.83;;
15317;SDS011;7759;52.528;13.346;2024-03-25T11:30:31;2.63;;;1.17;;
15317;SDS011;7759;52.528;13.346;2024-03-25T11:32:57;1.17;;;0.83;;
15317;SDS011;7759;52.528;13.346;2024-03-25T11:35:24;1.53;;;1.03;;
15317;SDS011;7759;52.528;13.346;2024-03-25T11:37:50;1.20;;;1.10;;
15317;SDS011;7759;52.528;13.346;2024-03-25T11:40:17;1.00;;;0.97;;
15317;SDS011;7759;52.528;13.346;2024-03-25T11:42:43;1.90;;;0.80;;
15317;SDS011;7759;52.528;13.346;2024-03-25T11:45:14;1.10;;;0.87;;
15317;SDS011;7759;52.528;13.346;2024-03-25T11:47:41;2.67;;;0.80;;
15317;SDS011;7759;52.528;13.346;2024-03-25T11:50:08;1.10;;;0.80;;
15317;SDS011;7759;52.528;13.346;2024-03-25T11:52:34;8.43;;;1.20;;
15317;SDS011;7759;52.528;13.346;2024-03-25T11:55:00;2.60;;;0.90;;
15317;SDS011;7759;52.528;13.346;2024-03-25T11:57:27;1.20;;;0.70;;
15317;SDS011;7759;52.528;13.346;2024-03-25T11:59:54;1.57;;;1.00;;
15317;SDS011;7759;52.528;13.346;2024-03-25T12:02:19;2.60;;;1.53;;
15317;SDS011;7759;52.528;13.346;2024-03-25T12:04:47;2.37;;;1.17;;
15317;SDS011;7759;52.528;13.346;2024-03-25T12:07:13;0.90;;;0.80;;
15317;SDS011;7759;52.528;13.346;2024-03-25T12:09:39;1.00;;;0.90;;
15317;SDS011;7759;52.528;13.346;2024-03-25T12:12:24;3.13;;;1.00;;
15317;SDS011;7759;52.528;13.346;2024-03-25T12:14:50;1.67;;;1.00;;
15317;SDS011;7759;52.528;13.346;2024-03-25T12:17:17;3.03;;;1.30;;
15317;SDS011;7759;52.528;13.346;2024-03-25T12:19:43;0.90;;;0.80;;
15317;SDS011;7759;52.528;13.346;2024-03-25T12:22:09;2.37;;;1.10;;
15317;SDS011;7759;52.528;13.346;2024-03-25T12:24:35;1.90;;;1.07;;
15317;SDS011;7759;52.528;13.346;2024-03-25T12:27:01;1.67;;;0.90;;
15317;SDS011;7759;52.528;13.346;2024-03-25T12:29:28;1.10;;;0.73;;
15317;SDS011;7759;52.528;13.346;2024-03-25T12:31:57;1.90;;;0.97;;
15317;SDS011;7759;52.528;13.346;2024-03-25T12:34:26;1.23;;;0.90;;
15317;SDS011;7759;52.528;13.346;2024-03-25T12:37:00;1.33;;;0.90;;
15317;SDS011;7759;52.528;13.346;2024-03-25T12:39:26;1.47;;;1.00;;
15317;SDS011;7759;52.528;13.346;2024-03-25T12:41:53;1.30;;;0.90;;
15317;SDS011;7759;52.528;13.346;2024-03-25T12:44:19;1.93;;;0.83;;
15317;SDS011;7759;52.528;13.346;2024-03-25T12:46:45;3.57;;;1.03;;
15317;SDS011;7759;52.528;13.346;2024-03-25T12:49:11;4.03;;;0.87;;
15317;SDS011;7759;52.528;13.346;2024-03-25T12:51:37;2.10;;;0.83;;
15317;SDS011;7759;52.528;13.346;2024-03-25T12:54:03;1.27;;;0.90;;
15317;SDS011;7759;52.528;13.346;2024-03-25T12:56:29;1.57;;;0.87;;
15317;SDS011;7759;52.528;13.346;2024-03-25T12:58:55;0.87;;;0.60;;
15317;SDS011;7759;52.528;13.346;2024-03-25T13:01:21;1.27;;;0.90;;
15317;SDS011;7759;52.528;13.346;2024-03-25T13:03:47;1.20;;;0.90;;
15317;SDS011;7759;52.528;13.346;2024-03-25T13:06:13;2.40;;;1.20;;
15317;SDS011;7759;52.528;13.346;2024-03-25T13:08:38;2.33;;;1.30;;
15317;SDS011;7759;52.528;13.346;2024-03-25T13:11:04;5.77;;;1.10;;
15317;SDS011;7759;52.528;13.346;2024-03-25T13:13:30;0.77;;;0.70;;
15317;SDS011;7759;52.528;13.346;2024-03-25T13:15:56;1.73;;;1.03;;
15317;SDS011;7759;52.528;13.346;2024-03-25T13:18:22;1.83;;;1.00;;
15317;SDS011;7759;52.528;13.346;2024-03-25T13:20:48;0.60;;;0.60;;
15317;SDS011;7759;52.528;13.346;2024-03-25T13:23:14;0.63;;;0.63;;
15317;SDS011;7759;52.528;13.346;2024-03-25T13:25:40;0.60;;;0.60;;
15317;SDS011;7759;52.528;13.346;2024-03-25T13:28:06;0.83;;;0.77;;
15317;SDS011;7759;52.528;13.346;2024-03-25T13:30:32;3.43;;;0.93;;
15317;SDS011;7759;52.528;13.346;2024-03-25T13:32:58;3.60;;;0.90;;
15317;SDS011;7759;52.528;13.346;2024-03-25T13:35:24;3.13;;;0.70;;
15317;SDS011;7759;52.528;13.346;2024-03-25T13:37:50;1.17;;;0.80;;
15317;SDS011;7759;52.528;13.346;2024-03-25T13:40:16;0.93;;;0.80;;
15317;SDS011;7759;52.528;13.346;2024-03-25T13:42:42;1.30;;;0.80;;
15317;SDS011;7759;52.528;13.346;2024-03-25T13:45:08;2.03;;;0.80;;
15317;SDS011;7759;52.528;13.346;2024-03-25T13:47:34;2.00;;;0.80;;
15317;SDS011;7759;52.528;13.346;2024-03-25T13:50:03;0.83;;;0.50;;
15317;SDS011;7759;52.528;13.346;2024-03-25T13:52:32;1.80;;;0.67;;
15317;SDS011;7759;52.528;13.346;2024-03-25T13:54:58;0.73;;;0.67;;
15317;SDS011;7759;52.528;13.346;2024-03-25T13:57:24;0.43;;;0.40;;
15317;SDS011;7759;52.528;13.346;2024-03-25T13:59:50;0.70;;;0.67;;
15317;SDS011;7759;52.528;13.346;2024-03-25T14:02:16;2.00;;;0.80;;
15317;SDS011;7759;52.528;13.346;2024-03-25T14:04:42;1.53;;;0.60;;
15317;SDS011;7759;52.528;13.346;2024-03-25T14:07:08;1.10;;;0.80;;
15317;SDS011;7759;52.528;13.346;2024-03-25T14:09:33;1.10;;;0.67;;
15317;SDS011;7759;52.528;13.346;2024-03-25T14:11:59;1.30;;;1.00;;
15317;SDS011;7759;52.528;13.346;2024-03-25T14:14:25;0.87;;;0.80;;
15317;SDS011;7759;52.528;13.346;2024-03-25T14:16:51;1.33;;;0.63;;
15317;SDS011;7759;52.528;13.346;2024-03-25T14:19:17;4.27;;;0.87;;
15317;SDS011;7759;52.528;13.346;2024-03-25T14:21:43;1.73;;;1.07;;
15317;SDS011;7759;52.528;13.346;2024-03-25T14:24:09;2.00;;;0.97;;
15317;SDS011;7759;52.528;13.346;2024-03-25T14:26:35;0.87;;;0.57;;
15317;SDS011;7759;52.528;13.346;2024-03-25T14:29:01;0.60;;;0.60;;
15317;SDS011;7759;52.528;13.346;2024-03-25T14:31:27;1.13;;;0.87;;
15317;SDS011;7759;52.528;13.346;2024-03-25T14:33:55;1.27;;;0.80;;
15317;SDS011;7759;52.528;13.346;2024-03-25T14:36:21;1.90;;;0.70;;
15317;SDS011;7759;52.528;13.346;2024-03-25T14:38:47;0.90;;;0.80;;
15317;SDS011;7759;52.528;13.346;2024-03-25T14:41:18;0.50;;;0.50;;
15317;SDS011;7759;52.528;13.346;2024-03-25T14:43:44;1.53;;;0.90;;